Latest Weather Observations for White Cliffs AWS

IDN60801

Issued at 9:02 pm EST Saturday 29 April 2017 (issued every 30 minutes, with the page automatically refreshed every 10 minutes)

About weather observations | Map of weather stations | Latest weather observations for NSW | Other Formats
Station Details ID: 046129 Name: WHITE CLIFFS AWS Lat: -30.85 Lon: 143.07 Height: 158.0 m
Data from the previous 72 hours. | See also: Recent months at White Cliffs AWS
Date/Time
EST
Temp
°C
App
Temp
°C
Dew
Point
°C
Rel
Hum
%
Delta-T
°C
Wind Press
QNH
hPa
Press
MSL
hPa
Rain since
9am
mm
Dir  Spd
km/h
Gust
km/h
Spd
kts
Gust
kts
29/09:00pm 16.0 11.6 7.5 57 4.3 SSE 20 26 11 14 1023.8 1023.3 0.0
29/08:30pm 16.3 12.4 7.3 55 4.5 SSE 17 20 9 11 1023.7 1023.2 0.0
29/08:00pm 16.9 13.1 7.5 54 4.7 SSE 17 22 9 12 1023.3 1022.8 0.0
29/07:30pm 17.5 13.7 7.5 52 5.1 SSE 17 20 9 11 1023.2 1022.7 0.0
29/07:00pm 18.0 14.5 7.4 50 5.4 S 15 19 8 10 1022.9 1022.5 0.0
29/06:30pm 18.5 14.6 7.0 47 5.8 S 17 20 9 11 1022.6 1022.2 0.0
29/06:00pm 19.3 15.3 6.8 44 6.3 SSE 17 20 9 11 1022.2 1021.8 0.0
29/05:30pm 20.0 15.1 6.7 42 6.8 SSE 22 30 12 16 1021.8 1021.4 0.0
29/05:00pm 20.6 16.6 6.5 40 7.1 SSE 17 26 9 14 1021.8 1021.4 0.0
29/04:30pm 21.0 16.1 6.9 40 7.2 SSE 22 30 12 16 1021.9 1021.5 0.0
29/04:00pm 21.0 16.6 6.5 39 7.4 S 19 30 10 16 1022.0 1021.6 0.0
29/03:30pm 21.1 16.4 6.2 38 7.6 S 20 26 11 14 1022.1 1021.7 0.0
29/03:00pm 20.6 16.6 6.5 40 7.1 S 17 32 9 17 1022.3 1021.9 0.0
29/02:30pm 21.0 16.8 7.3 41 7.1 S 19 28 10 15 1022.4 1022.0 0.0
29/02:00pm 20.5 16.3 7.5 43 6.7 SSE 19 28 10 15 1022.8 1022.4 0.0
29/01:30pm 19.2 14.8 6.7 44 6.3 SSE 19 32 10 17 1023.2 1022.7 0.0
29/01:00pm 19.5 15.6 7.3 45 6.2 SE 17 24 9 13 1023.7 1023.2 0.0
29/12:30pm 19.0 15.1 7.1 46 6.1 SE 17 22 9 12 1024.3 1023.8 0.0
29/12:00pm 18.9 14.7 7.4 47 5.8 SE 19 28 10 15 1025.0 1024.5 0.0
29/11:30am 18.4 15.3 7.2 48 5.7 SE 13 20 7 11 1025.3 1024.8 0.0
29/11:00am 17.4 13.5 6.9 50 5.2 SSE 17 22 9 12 1025.5 1025.0 0.0
29/10:30am 16.9 13.0 7.0 52 5.0 SSE 17 24 9 13 1025.7 1025.2 0.0
29/10:00am 16.4 12.8 6.8 53 4.7 SSE 15 20 8 11 1025.8 1025.3 0.0
29/09:30am 16.0 12.8 7.0 55 4.5 SSE 13 19 7 10 1026.0 1025.5 0.0
29/09:00am 13.7 10.6 7.2 65 3.2 SSW 13 15 7 8 1025.9 1025.4 0.0
29/08:30am 12.6 12.0 7.3 70 2.6 CALM 0 0 0 0 1025.5 1025.0 0.0
29/08:00am 11.3 9.3 7.2 76 2.0 SSE 7 9 4 5 1025.2 1024.7 0.0
29/07:30am 9.9 8.3 6.4 79 1.6 SSE 4 9 2 5 1024.8 1024.3 0.0
29/07:00am 9.2 6.3 6.3 82 1.3 S 11 13 6 7 1024.5 1024.0 0.0
29/06:30am 8.8 5.4 6.1 83 1.2 S 13 13 7 7 1024.3 1023.8 0.0
29/06:00am 8.0 4.1 5.5 84 1.1 SSW 15 17 8 9 1024.1 1023.6 0.0
29/05:30am 8.3 4.9 5.8 84 1.1 S 13 15 7 8 1024.0 1023.5 0.0
29/05:00am 8.2 4.7 5.5 83 1.2 SSW 13 13 7 7 1024.0 1023.5 0.0
29/04:30am 8.3 4.4 5.4 82 1.3 SSW 15 17 8 9 1024.0 1023.5 0.0
29/04:00am 8.8 5.7 5.5 80 1.5 S 11 13 6 7 1024.1 1023.6 0.0
29/03:30am 9.0 5.5 5.6 79 1.6 S 13 15 7 8 1024.0 1023.5 0.0
29/03:00am 9.1 5.7 5.7 79 1.6 SSW 13 13 7 7 1024.1 1023.6 0.0
29/02:30am 9.7 6.3 5.7 76 1.8 S 13 13 7 7 1024.1 1023.6 0.0
29/02:00am 9.7 6.2 5.3 74 2.0 S 13 15 7 8 1024.2 1023.7 0.0
29/01:30am 10.8 7.0 5.6 70 2.4 S 15 17 8 9 1024.4 1023.9 0.0
29/01:00am 11.3 7.5 5.8 69 2.6 SSE 15 17 8 9 1024.4 1023.9 0.0
29/12:30am 11.6 7.8 5.7 67 2.8 SSE 15 17 8 9 1024.6 1024.1 0.0
29/12:00am 11.7 7.9 5.8 67 2.8 SSE 15 17 8 9 1024.7 1024.2 0.0
 
Date/Time
EST
Temp
°C
App
Temp
°C
Dew
Point
°C
Rel
Hum
%
Delta-T
°C
Wind Press
QNH
hPa
Press
MSL
hPa
Rain since
9am
mm
Dir  Spd
km/h
Gust
km/h
Spd
kts
Gust
kts
28/11:30pm 11.5 7.6 5.2 65 2.9 S 15 17 8 9 1024.7 1024.2 0.0
28/11:00pm 12.8 8.6 5.5 61 3.4 SSE 17 19 9 10 1024.7 1024.2 0.0
28/10:30pm 13.1 8.9 5.5 60 3.6 SSE 17 20 9 11 1024.9 1024.4 0.0
28/10:00pm 13.3 9.1 5.5 59 3.7 SSE 17 20 9 11 1024.9 1024.4 0.0
28/09:30pm 13.7 9.9 5.6 58 3.8 SSE 15 19 8 10 1024.9 1024.4 0.0
28/09:00pm 13.9 10.0 5.5 57 4.0 SSE 15 20 8 11 1024.9 1024.4 0.0
28/08:30pm 14.1 10.2 5.2 55 4.2 SSE 15 19 8 10 1025.1 1024.6 0.0
28/08:00pm 14.4 10.5 5.2 54 4.3 SSE 15 19 8 10 1025.1 1024.6 0.0
28/07:30pm 14.6 11.0 4.9 52 4.6 SSE 13 13 7 7 1025.1 1024.6 0.0
28/07:00pm 15.3 10.9 5.0 50 4.9 SSE 17 20 9 11 1024.8 1024.3 0.0
28/06:30pm 15.8 11.0 4.8 48 5.2 SSE 19 26 10 14 1024.5 1024.0 0.0
28/06:00pm 16.3 11.3 4.7 46 5.5 SSE 20 28 11 15 1024.2 1023.7 0.0
28/05:30pm 17.0 11.6 4.7 44 5.9 S 22 28 12 15 1024.1 1023.6 0.0
28/05:00pm 17.5 11.8 4.8 43 6.1 SSE 24 30 13 16 1024.0 1023.5 0.0
28/04:30pm 17.8 12.8 4.4 41 6.4 SSE 20 32 11 17 1023.9 1023.4 0.0
28/04:00pm 18.1 11.9 4.3 40 6.6 SSE 26 33 14 18 1024.1 1023.6 0.0
28/03:30pm 18.3 12.1 4.5 40 6.6 S 26 33 14 18 1024.3 1023.8 0.0
28/03:00pm 18.1 12.3 4.3 40 6.6 S 24 35 13 19 1024.3 1023.8 0.0
28/02:30pm 18.5 12.0 4.7 40 6.7 S 28 39 15 21 1024.4 1023.9 0.0
28/02:00pm 17.8 12.7 4.0 40 6.5 SSE 20 30 11 16 1024.7 1024.2 0.0
28/01:30pm 18.4 13.0 4.6 40 6.7 SSE 22 33 12 18 1024.9 1024.4 0.0
28/01:00pm 17.0 11.4 3.3 40 6.3 SSE 22 32 12 17 1025.3 1024.8 0.0
28/12:30pm 17.5 12.0 4.1 41 6.4 S 22 32 12 17 1025.6 1025.1 0.0
28/12:00pm 16.5 10.2 3.9 43 5.9 S 26 37 14 20 1026.2 1025.7 0.0
28/11:30am 16.5 10.3 4.2 44 5.8 S 26 37 14 20 1026.6 1026.2 0.0
28/11:00am 15.5 8.8 3.9 46 5.4 SSE 28 37 15 20 1027.1 1026.7 0.0
28/10:30am 15.7 10.0 4.7 48 5.2 SSE 24 32 13 17 1027.2 1026.8 0.0
28/10:00am 15.0 8.9 4.7 50 4.8 SSE 26 33 14 18 1027.3 1026.9 0.0
28/09:30am 15.1 8.3 5.3 52 4.7 SSE 30 35 16 19 1027.3 1026.9 0.0
28/09:00am 14.0 9.3 5.9 58 3.9 S 20 26 11 14 1027.1 1026.7 0.0
28/08:30am 12.5 8.2 5.2 61 3.4 S 17 22 9 12 1026.7 1026.3 0.0
28/08:00am 11.4 7.8 4.8 64 3.0 S 13 17 7 9 1026.4 1025.9 0.0
28/07:30am 9.8 6.5 4.4 69 2.4 S 11 13 6 7 1026.1 1025.6 0.0
28/07:00am 8.8 5.0 3.8 71 2.2 S 13 13 7 7 1025.7 1025.2 0.0
28/06:30am 8.7 5.2 3.5 70 2.3 S 11 13 6 7 1025.5 1025.0 0.0
28/06:00am 9.0 5.5 3.6 69 2.3 S 11 13 6 7 1025.3 1024.8 0.0
28/05:30am 9.4 5.5 3.4 66 2.6 S 13 13 7 7 1025.1 1024.6 0.0
28/05:00am 10.3 6.4 3.6 63 2.9 S 13 13 7 7 1025.0 1024.5 0.0
28/04:30am 11.2 7.3 3.5 59 3.4 S 13 15 7 8 1024.7 1024.2 0.0
28/04:00am 11.9 7.2 3.4 56 3.8 S 17 20 9 11 1024.8 1024.3 0.0
28/03:30am 12.7 6.7 3.1 52 4.3 S 24 30 13 16 1024.6 1024.1 0.0
28/03:00am 13.0 7.3 3.1 51 4.4 SSE 22 32 12 17 1024.7 1024.2 0.0
28/02:30am 13.1 6.3 2.9 50 4.5 S 28 35 15 19 1024.7 1024.2 0.0
28/02:00am 13.2 7.1 3.0 50 4.5 S 24 30 13 16 1024.8 1024.3 0.0
28/01:30am 12.9 7.6 3.0 51 4.4 SSE 20 28 11 15 1025.0 1024.5 0.0
28/01:00am 12.7 7.6 2.8 51 4.4 SSE 19 24 10 13 1025.2 1024.7 0.0
28/12:30am 11.9 7.2 3.2 55 3.9 SSE 17 20 9 11 1025.3 1024.8 0.0
28/12:00am 12.0 8.1 3.3 55 3.9 SSE 13 19 7 10 1025.4 1024.9 0.0
 
Date/Time
EST
Temp
°C
App
Temp
°C
Dew
Point
°C
Rel
Hum
%
Delta-T
°C
Wind Press
QNH
hPa
Press
MSL
hPa
Rain since
9am
mm
Dir  Spd
km/h
Gust
km/h
Spd
kts
Gust
kts
27/11:30pm 12.0 8.1 3.3 55 3.9 S 13 17 7 9 1025.5 1025.0 0.0
27/11:00pm 12.1 8.1 3.1 54 4.0 S 13 15 7 8 1025.6 1025.1 0.0
27/10:30pm 12.4 8.0 2.8 52 4.2 S 15 20 8 11 1025.6 1025.1 0.0
27/10:00pm 12.7 7.9 2.8 51 4.4 S 17 20 9 11 1025.5 1025.0 0.0
27/09:30pm 12.8 8.0 2.6 50 4.5 SSE 17 20 9 11 1025.6 1025.1 0.0
27/09:00pm 13.0 8.1 2.3 48 4.7 SSE 17 20 9 11 1025.5 1025.0 0.0
27/08:30pm 13.3 8.5 2.5 48 4.8 SSE 17 20 9 11 1025.4 1024.9 0.0
27/08:00pm 13.6 9.1 2.2 46 5.0 SSE 15 20 8 11 1025.1 1024.6 0.0
27/07:30pm 14.0 8.8 2.3 45 5.2 S 19 28 10 15 1025.1 1024.6 0.0
27/07:00pm 14.4 8.2 2.3 44 5.4 S 24 30 13 16 1025.0 1024.5 0.0
27/06:30pm 14.6 8.8 2.2 43 5.5 S 22 28 12 15 1024.5 1024.0 0.0
27/06:00pm 15.0 8.0 1.9 41 5.8 S 28 35 15 19 1023.8 1023.3 0.0
27/05:30pm 15.5 8.0 1.3 38 6.2 SSW 30 37 16 20 1023.4 1022.9 0.0
27/05:00pm 16.2 8.7 1.5 37 6.5 S 30 39 16 21 1023.0 1022.6 0.0
27/04:30pm 16.4 8.3 1.3 36 6.7 S 33 43 18 23 1022.8 1022.4 0.0
27/04:00pm 16.8 9.3 0.9 34 7.0 S 30 43 16 23 1022.7 1022.3 0.0
27/03:30pm 16.7 9.6 1.2 35 6.9 SSW 28 41 15 22 1022.6 1022.2 0.0
27/03:00pm 17.0 9.1 1.0 34 7.1 SSE 32 44 17 24 1022.7 1022.3 0.0
27/02:46pm 16.8 8.9 0.9 34 7.0 S 32 50 17 27 1022.6 1022.2 0.0
27/02:30pm 16.8 8.9 1.3 35 6.9 S 32 41 17 22 1022.7 1022.3 0.0
27/02:00pm 16.3 8.2 1.2 36 6.6 S 33 48 18 26 1022.8 1022.4 0.0
27/01:30pm 16.1 8.1 1.8 38 6.4 S 33 48 18 26 1023.2 1022.7 0.0
27/01:00pm 16.2 8.1 1.1 36 6.6 SSW 33 46 18 25 1023.5 1023.0 0.0
27/12:30pm 15.4 7.6 1.9 40 6.0 S 32 43 17 23 1024.1 1023.6 0.0
27/12:00pm 14.5 6.5 1.4 41 5.7 S 33 44 18 24 1024.7 1024.2 0.0
27/11:30am 14.3 6.0 1.9 43 5.5 S 35 43 19 23 1025.0 1024.5 0.0
27/11:00am 13.9 6.0 2.5 46 5.0 S 33 41 18 22 1025.1 1024.6 0.0
27/10:30am 13.0 4.6 1.7 46 4.9 S 35 44 19 24 1025.3 1024.8 0.0
27/10:00am 12.4 4.6 2.8 52 4.2 S 33 41 18 22 1025.3 1024.8 0.0
27/09:30am 11.6 4.1 3.6 58 3.6 S 32 41 17 22 1025.3 1024.8 0.0
27/09:00am 10.7 4.4 3.7 62 3.1 S 26 39 14 21 1025.1 1024.6 0.0
27/08:30am 9.9 3.7 4.1 67 2.6 SSW 26 32 14 17 1024.9 1024.4 0.0
27/08:00am 9.0 4.0 3.8 70 2.3 SSW 19 24 10 13 1024.5 1024.0 0.0
27/07:30am 7.8 3.2 3.7 75 1.8 SSW 17 19 9 10 1024.3 1023.8 0.0
27/07:00am 7.4 2.7 3.3 75 1.7 SSW 17 20 9 11 1024.0 1023.5 0.0
27/06:30am 7.6 2.6 3.5 75 1.8 SSW 19 22 10 12 1023.7 1023.2 0.0
27/06:00am 7.2 2.9 3.3 76 1.7 SSW 15 17 8 9 1023.6 1023.1 0.0
27/05:30am 7.3 2.6 3.4 76 1.7 SW 17 19 9 10 1023.4 1022.9 0.0
27/05:00am 7.1 3.2 3.3 77 1.6 SW 13 17 7 9 1023.2 1022.7 0.0
27/04:30am 7.7 3.4 3.4 74 1.8 SW 15 17 8 9 1023.0 1022.6 0.0
27/04:00am 7.5 3.6 3.2 74 1.8 SW 13 15 7 8 1022.7 1022.3 0.0
27/03:30am 7.8 4.6 3.3 73 1.9 SSW 9 11 5 6 1022.6 1022.2 0.0
27/03:00am 8.6 4.7 3.4 70 2.2 SSW 13 13 7 7 1022.6 1022.2 0.0
27/02:30am 9.1 5.6 3.7 69 2.4 SSW 11 13 6 7 1022.3 1021.9 0.0
27/02:00am 9.2 5.4 3.8 69 2.4 SSW 13 15 7 8 1022.2 1021.8 0.0
27/01:30am 9.1 5.2 3.5 68 2.4 SSW 13 15 7 8 1022.0 1021.6 0.0
27/01:00am 9.2 5.0 3.6 68 2.4 SSW 15 17 8 9 1021.8 1021.4 0.0
27/12:30am 9.2 5.3 3.6 68 2.5 SSW 13 15 7 8 1021.5 1021.1 0.0
27/12:00am 9.5 5.6 3.5 66 2.6 SSW 13 15 7 8 1021.6 1021.2 0.0
 
Date/Time
EST
Temp
°C
App
Temp
°C
Dew
Point
°C
Rel
Hum
%
Delta-T
°C
Wind Press
QNH
hPa
Press
MSL
hPa
Rain since
9am
mm
Dir  Spd
km/h
Gust
km/h
Spd
kts
Gust
kts
26/11:30pm 9.8 5.9 3.3 64 2.8 S 13 13 7 7 1021.5 1021.1 0.0
26/11:00pm 10.2 6.2 3.0 61 3.1 SSW 13 15 7 8 1021.5 1021.1 0.0
26/10:30pm 10.7 6.7 3.0 59 3.4 SSW 13 15 7 8 1021.5 1021.1 0.0
26/10:00pm 11.0 7.0 2.8 57 3.6 S 13 15 7 8 1021.3 1020.9 0.0
26/09:30pm 11.3 7.3 2.6 55 3.8 SSW 13 15 7 8 1021.2 1020.8 0.0

Other Formats:

Comma delimited format used in spreadsheet applications
http://www.bom.gov.au/fwo/IDN60801/IDN60801.95699.axf

JavaScript Object Notation format (JSON) in row-major order
http://www.bom.gov.au/fwo/IDN60801/IDN60801.95699.json